Time;durP1;ratioP1;P1;durP2;ratioP2;P2;SDS_P1;SDS_P2;PMS_P1;PMS_P2;Temp;Humidity;BMP_temperature;BMP_pressure;BME280_temperature;BME280_humidity;BME280_pressure;Samples;Min_cycle;Max_cycle;Signal;HPM_P1;HPM_P2
2024/03/17 00:01:33;;;;;;;0.80;0.50;;;17.20;73.50;;;;;;4982930;28;20476;-80
2024/03/17 00:03:59;;;;;;;0.63;0.63;;;17.20;73.60;;;;;;4984797;28;20073;-83
2024/03/17 00:06:24;;;;;;;1.05;0.60;;;17.20;73.40;;;;;;4949432;28;20174;-81
2024/03/17 00:08:50;;;;;;;0.63;0.40;;;17.20;73.60;;;;;;4968908;28;20038;-87
2024/03/17 00:11:16;;;;;;;0.68;0.47;;;17.20;73.50;;;;;;4985910;28;20431;-84
2024/03/17 00:13:41;;;;;;;0.70;0.60;;;17.20;73.30;;;;;;4987096;28;20069;-82
2024/03/17 00:16:07;;;;;;;2.95;0.70;;;17.20;73.10;;;;;;4986414;28;20522;-79
2024/03/17 00:18:32;;;;;;;0.85;0.50;;;17.20;73.10;;;;;;4987552;28;20046;-82
2024/03/17 00:20:59;;;;;;;0.93;0.55;;;17.20;73.10;;;;;;4988475;28;20097;-82
2024/03/17 00:23:25;;;;;;;0.60;0.60;;;17.20;73.10;;;;;;4985189;28;20039;-81
2024/03/17 00:25:50;;;;;;;0.40;0.40;;;17.20;73.10;;;;;;4986474;28;20377;-82
2024/03/17 00:28:16;;;;;;;0.80;0.60;;;17.10;73.10;;;;;;4988993;28;20092;-81
2024/03/17 00:30:42;;;;;;;1.08;0.60;;;17.10;73.10;;;;;;4988890;28;20046;-82
2024/03/17 00:33:08;;;;;;;0.40;0.40;;;17.10;73.10;;;;;;4986509;28;20460;-83
2024/03/17 00:35:33;;;;;;;0.98;0.52;;;17.10;73.10;;;;;;4978833;28;20046;-82
2024/03/17 00:38:00;;;;;;;2.88;0.60;;;17.10;73.00;;;;;;4986907;28;20054;-82
2024/03/17 00:40:25;;;;;;;0.70;0.50;;;17.10;74.10;;;;;;4986566;28;20129;-82
2024/03/17 00:42:51;;;;;;;1.00;0.70;;;17.10;73.20;;;;;;5002391;28;20137;-82
2024/03/17 00:45:16;;;;;;;1.02;0.80;;;17.10;73.40;;;;;;4987931;28;20034;-82
2024/03/17 00:47:43;;;;;;;1.23;0.63;;;17.10;73.40;;;;;;4986962;28;20105;-82
2024/03/17 00:50:11;;;;;;;1.95;0.90;;;17.10;73.40;;;;;;4985023;28;20419;-82
2024/03/17 00:52:36;;;;;;;1.02;0.60;;;17.10;73.40;;;;;;4985226;28;20050;-82
2024/03/17 00:55:02;;;;;;;1.20;0.80;;;17.10;73.40;;;;;;4987766;28;20068;-82
2024/03/17 00:57:28;;;;;;;0.93;0.70;;;17.10;74.20;;;;;;4967936;28;20085;-82
2024/03/17 00:59:54;;;;;;;0.47;0.47;;;17.10;73.40;;;;;;4989147;28;20034;-82
2024/03/17 01:02:21;;;;;;;0.77;0.63;;;17.10;73.40;;;;;;4986932;28;20512;-82
2024/03/17 01:04:47;;;;;;;0.98;0.70;;;17.10;73.40;;;;;;5000122;28;20038;-76
2024/03/17 01:07:12;;;;;;;0.85;0.75;;;17.10;74.20;;;;;;4985585;28;20421;-76
2024/03/17 01:09:38;;;;;;;1.25;0.80;;;17.10;73.50;;;;;;4986003;28;20101;-76
2024/03/17 01:12:04;;;;;;;1.80;1.40;;;17.10;73.60;;;;;;4988711;28;20066;-76
2024/03/17 01:14:30;;;;;;;1.20;0.90;;;17.10;74.60;;;;;;4968951;28;20030;-76
2024/03/17 01:16:56;;;;;;;0.60;0.60;;;17.10;73.90;;;;;;4969652;28;20054;-76
2024/03/17 01:19:21;;;;;;;1.15;0.85;;;17.10;74.60;;;;;;4968268;28;20049;-76
2024/03/17 01:21:47;;;;;;;1.23;0.73;;;17.10;73.70;;;;;;4968972;28;20046;-77
2024/03/17 01:24:16;;;;;;;1.08;0.90;;;17.10;73.70;;;;;;4984855;28;20030;-77
2024/03/17 01:26:42;;;;;;;0.95;0.88;;;17.10;73.80;;;;;;4985575;28;20061;-77
2024/03/17 01:29:08;;;;;;;1.27;0.68;;;17.10;73.70;;;;;;4985703;28;20034;-77
2024/03/17 01:31:34;;;;;;;0.85;0.60;;;17.10;73.70;;;;;;4985753;28;20066;-77
2024/03/17 01:34:00;;;;;;;1.00;0.75;;;17.10;73.70;;;;;;4985037;28;21455;-77
2024/03/17 01:36:25;;;;;;;0.90;0.68;;;17.10;73.70;;;;;;4983398;28;20038;-77
2024/03/17 01:38:51;;;;;;;0.82;0.60;;;17.10;73.70;;;;;;4986361;28;20120;-77
2024/03/17 01:41:16;;;;;;;0.88;0.68;;;17.10;73.70;;;;;;4984627;28;20931;-77
2024/03/17 01:43:42;;;;;;;1.38;0.60;;;17.10;73.80;;;;;;4982745;28;20051;-77
2024/03/17 01:46:12;;;;;;;0.80;0.60;;;17.10;73.80;;;;;;4983625;28;20034;-77
2024/03/17 01:48:38;;;;;;;0.60;0.57;;;17.10;73.70;;;;;;4984679;28;20031;-77
2024/03/17 01:51:04;;;;;;;1.08;0.70;;;17.10;73.70;;;;;;4985723;28;20100;-77
2024/03/17 01:53:30;;;;;;;0.75;0.68;;;17.10;73.70;;;;;;4967087;28;20031;-77
2024/03/17 01:55:57;;;;;;;0.40;0.40;;;17.10;73.80;;;;;;4984756;28;20045;-77
2024/03/17 01:58:26;;;;;;;0.70;0.70;;;17.10;73.80;;;;;;4968525;28;20073;-77
2024/03/17 02:00:52;;;;;;;2.28;0.80;;;17.10;73.80;;;;;;4974965;28;20034;-77
2024/03/17 02:03:18;;;;;;;1.00;0.80;;;17.10;73.80;;;;;;4981580;28;20048;-77
2024/03/17 02:05:44;;;;;;;2.22;0.77;;;17.10;73.80;;;;;;4968679;28;20068;-77
2024/03/17 02:08:10;;;;;;;1.20;0.80;;;17.10;73.80;;;;;;4953297;28;20028;-77
2024/03/17 02:10:35;;;;;;;1.38;1.00;;;17.10;74.80;;;;;;4967467;28;20034;-77
2024/03/17 02:13:03;;;;;;;1.45;1.00;;;17.10;73.90;;;;;;4982830;28;20037;-76
2024/03/17 02:15:29;;;;;;;1.83;0.80;;;17.10;74.80;;;;;;4967152;28;20034;-76
2024/03/17 02:17:55;;;;;;;0.70;0.60;;;17.10;74.10;;;;;;4985910;28;20519;-77
2024/03/17 02:20:24;;;;;;;1.25;0.68;;;17.10;73.90;;;;;;4969107;28;20061;-77
2024/03/17 02:22:50;;;;;;;1.13;0.57;;;17.10;74.00;;;;;;4985463;28;20046;-77
2024/03/17 02:25:15;;;;;;;0.70;0.50;;;17.10;74.00;;;;;;4953362;28;20038;-77
2024/03/17 02:27:41;;;;;;;1.08;0.73;;;17.10;73.90;;;;;;4986377;28;20563;-77
2024/03/17 02:30:09;;;;;;;1.08;0.88;;;17.10;73.90;;;;;;5002745;28;20045;-77
2024/03/17 02:32:35;;;;;;;1.25;0.60;;;17.10;73.80;;;;;;4982426;28;20065;-77
2024/03/17 02:35:00;;;;;;;0.52;0.50;;;17.10;73.80;;;;;;4986184;28;20075;-77
2024/03/17 02:37:26;;;;;;;0.57;0.50;;;17.10;73.80;;;;;;4982724;28;20691;-77
2024/03/17 02:39:52;;;;;;;0.85;0.55;;;17.10;73.80;;;;;;4984220;28;20059;-77
2024/03/17 02:42:18;;;;;;;0.68;0.65;;;17.10;73.80;;;;;;4984365;28;20057;-77
2024/03/17 02:44:44;;;;;;;0.52;0.52;;;17.10;73.70;;;;;;4985086;28;20053;-77
2024/03/17 02:47:09;;;;;;;0.55;0.40;;;17.10;73.70;;;;;;4985293;28;20404;-77
2024/03/17 02:49:37;;;;;;;1.15;0.70;;;17.10;73.70;;;;;;4977598;28;20523;-77
2024/03/17 02:52:04;;;;;;;0.60;0.60;;;17.10;74.50;;;;;;4983844;28;20043;-77
2024/03/17 02:54:30;;;;;;;0.45;0.40;;;17.10;73.60;;;;;;4996783;28;20050;-78
2024/03/17 02:56:55;;;;;;;0.80;0.50;;;17.10;73.70;;;;;;4968733;28;20038;-78
2024/03/17 02:59:21;;;;;;;0.82;0.50;;;17.10;73.50;;;;;;4965931;28;20050;-77
2024/03/17 03:01:47;;;;;;;1.85;0.90;;;17.10;75.00;;;;;;4966368;28;20559;-76
2024/03/17 03:04:12;;;;;;;0.63;0.60;;;17.10;74.80;;;;;;4964297;28;20050;-76
2024/03/17 03:06:38;;;;;;;0.73;0.50;;;17.10;75.00;;;;;;4998903;28;20104;-76
2024/03/17 03:09:09;;;;;;;0.60;0.52;;;17.10;74.90;;;;;;4995545;28;20077;-77
2024/03/17 03:11:35;;;;;;;0.77;0.60;;;17.10;74.80;;;;;;4982752;28;20133;-77
2024/03/17 03:14:02;;;;;;;0.40;0.40;;;17.10;75.00;;;;;;4985054;28;20137;-77
2024/03/17 03:16:28;;;;;;;0.38;0.38;;;17.10;75.10;;;;;;4967425;28;20034;-77
2024/03/17 03:18:54;;;;;;;0.90;0.55;;;17.10;75.00;;;;;;4988311;28;20035;-77
2024/03/17 03:21:21;;;;;;;0.70;0.57;;;17.10;74.90;;;;;;4988949;28;20520;-77
2024/03/17 03:23:47;;;;;;;0.70;0.70;;;17.10;75.00;;;;;;5003232;28;20043;-77
2024/03/17 03:26:12;;;;;;;0.70;0.50;;;17.10;74.80;;;;;;4986656;28;20408;-77
2024/03/17 03:28:38;;;;;;;0.52;0.52;;;17.10;74.80;;;;;;4953229;28;20961;-77
2024/03/17 03:31:04;;;;;;;0.60;0.50;;;17.10;74.80;;;;;;4984359;28;20108;-77
2024/03/17 03:33:29;;;;;;;0.50;0.50;;;17.10;74.80;;;;;;4984501;28;20154;-77
2024/03/17 03:35:55;;;;;;;0.52;0.52;;;17.10;74.70;;;;;;4983073;28;20039;-78
2024/03/17 03:38:21;;;;;;;0.55;0.50;;;17.10;74.60;;;;;;4989228;28;20046;-77
2024/03/17 03:40:47;;;;;;;0.43;0.35;;;17.10;74.70;;;;;;4969953;28;20483;-77
2024/03/17 03:43:13;;;;;;;1.02;0.60;;;17.10;74.60;;;;;;4988041;28;20129;-77
2024/03/17 03:45:39;;;;;;;1.13;0.68;;;17.10;74.60;;;;;;4988866;28;22420;-76
2024/03/17 03:48:06;;;;;;;0.82;0.60;;;17.10;74.60;;;;;;4970574;28;20031;-77
2024/03/17 03:50:32;;;;;;;0.80;0.57;;;17.10;74.50;;;;;;4986778;28;20050;-77
2024/03/17 03:52:57;;;;;;;0.63;0.57;;;17.10;74.60;;;;;;4987707;28;20069;-77
2024/03/17 03:55:23;;;;;;;0.65;0.60;;;17.10;74.60;;;;;;4985614;28;20030;-77
2024/03/17 03:57:52;;;;;;;0.60;0.60;;;17.10;74.60;;;;;;4988661;28;20508;-76
2024/03/17 04:00:23;;;;;;;0.60;0.40;;;17.10;74.50;;;;;;4987607;28;20046;-76
2024/03/17 04:02:50;;;;;;;0.95;0.50;;;17.10;74.60;;;;;;4981858;28;20126;-76
2024/03/17 04:05:16;;;;;;;1.80;0.85;;;17.10;74.50;;;;;;4982123;28;20030;-76
2024/03/17 04:07:42;;;;;;;0.60;0.50;;;17.10;75.30;;;;;;4986033;28;20759;-76
2024/03/17 04:10:09;;;;;;;0.60;0.50;;;17.10;74.60;;;;;;4987470;28;20503;-76
2024/03/17 04:12:34;;;;;;;1.00;0.30;;;17.10;74.50;;;;;;4984680;28;20126;-77
2024/03/17 04:15:00;;;;;;;0.60;0.40;;;17.10;74.60;;;;;;4972092;28;20149;-77
2024/03/17 04:17:27;;;;;;;0.40;0.38;;;17.10;74.50;;;;;;4969943;28;20419;-77
2024/03/17 04:19:55;;;;;;;0.68;0.55;;;17.10;74.50;;;;;;4969204;28;20092;-77
2024/03/17 04:22:21;;;;;;;0.50;0.45;;;17.10;74.50;;;;;;4988154;28;20480;-77
2024/03/17 04:24:48;;;;;;;0.35;0.30;;;17.10;74.40;;;;;;4987628;28;20042;-76
2024/03/17 04:27:14;;;;;;;0.30;0.20;;;17.10;74.30;;;;;;4988165;28;20582;-77
2024/03/17 04:29:40;;;;;;;0.50;0.35;;;17.10;75.20;;;;;;4987744;28;20043;-77
2024/03/17 04:32:06;;;;;;;0.68;0.60;;;17.10;74.40;;;;;;4988078;28;20065;-76
2024/03/17 04:34:31;;;;;;;0.55;0.55;;;17.10;75.20;;;;;;4986680;28;20034;-76
2024/03/17 04:36:57;;;;;;;0.80;0.77;;;17.10;74.40;;;;;;4987103;28;20049;-76
2024/03/17 04:39:23;;;;;;;0.47;0.28;;;17.10;74.40;;;;;;4987729;28;20046;-76
2024/03/17 04:41:50;;;;;;;0.45;0.43;;;17.10;74.20;;;;;;4986601;28;20508;-76
2024/03/17 04:44:16;;;;;;;0.50;0.40;;;17.10;74.40;;;;;;5002904;28;20092;-77
2024/03/17 04:46:41;;;;;;;0.52;0.32;;;17.10;74.40;;;;;;5001684;28;20046;-77
2024/03/17 04:49:08;;;;;;;0.65;0.43;;;17.10;74.40;;;;;;4953426;28;20492;-77
2024/03/17 04:51:34;;;;;;;0.68;0.68;;;17.10;74.40;;;;;;4969510;28;20038;-77
2024/03/17 04:53:59;;;;;;;0.40;0.40;;;17.10;74.30;;;;;;4988370;28;20038;-77
2024/03/17 04:56:25;;;;;;;1.40;0.75;;;17.10;74.30;;;;;;4985442;28;20043;-77
2024/03/17 04:58:51;;;;;;;0.50;0.50;;;17.10;74.40;;;;;;4988320;28;20046;-77
2024/03/17 05:01:16;;;;;;;0.40;0.40;;;17.10;74.20;;;;;;4969407;28;20037;-78
2024/03/17 05:03:42;;;;;;;1.75;0.57;;;17.10;74.30;;;;;;4984704;28;20042;-77
2024/03/17 05:06:07;;;;;;;0.50;0.40;;;17.10;74.20;;;;;;4986693;28;20038;-77
2024/03/17 05:08:36;;;;;;;0.70;0.50;;;17.10;74.30;;;;;;4968115;28;20045;-77
2024/03/17 05:11:06;;;;;;;1.05;0.40;;;17.10;74.40;;;;;;4997797;28;20052;-77
2024/03/17 05:13:33;;;;;;;1.85;0.50;;;17.10;74.30;;;;;;4985067;28;20112;-77
2024/03/17 05:15:59;;;;;;;0.57;0.40;;;17.10;74.50;;;;;;4984431;28;20058;-77
2024/03/17 05:18:28;;;;;;;0.95;0.65;;;17.10;75.10;;;;;;4967794;28;20070;-78
2024/03/17 05:21:00;;;;;;;0.50;0.50;;;17.10;74.40;;;;;;4985101;28;20060;-76
2024/03/17 05:23:27;;;;;;;1.17;0.60;;;17.10;74.40;;;;;;4985067;28;20077;-77
2024/03/17 05:25:53;;;;;;;1.00;0.50;;;17.10;74.30;;;;;;4967500;28;20050;-76
2024/03/17 05:28:18;;;;;;;0.43;0.40;;;17.10;74.40;;;;;;4984697;28;20034;-76
2024/03/17 05:30:44;;;;;;;0.65;0.40;;;17.10;74.50;;;;;;4985156;28;20057;-76
2024/03/17 05:33:09;;;;;;;0.40;0.40;;;17.10;74.30;;;;;;4986930;28;20472;-75
2024/03/17 05:35:35;;;;;;;0.50;0.30;;;17.00;74.30;;;;;;4968363;28;20038;-76
2024/03/17 05:38:01;;;;;;;0.40;0.40;;;17.10;74.50;;;;;;4951929;28;20424;-76
2024/03/17 05:40:26;;;;;;;0.40;0.30;;;17.10;74.30;;;;;;4966613;28;20042;-77
2024/03/17 05:42:52;;;;;;;0.60;0.35;;;17.10;75.30;;;;;;4983793;28;20045;-77
2024/03/17 05:45:17;;;;;;;0.45;0.45;;;17.10;74.60;;;;;;4996229;28;20515;-77
2024/03/17 05:47:43;;;;;;;0.30;0.30;;;17.10;74.60;;;;;;4984319;28;20042;-77
2024/03/17 05:50:09;;;;;;;0.40;0.40;;;17.00;74.40;;;;;;4967238;28;20125;-77
2024/03/17 05:52:34;;;;;;;0.85;0.52;;;17.10;74.60;;;;;;4984013;28;20565;-77
2024/03/17 05:55:00;;;;;;;0.70;0.55;;;17.00;74.50;;;;;;4985027;28;20050;-77
2024/03/17 05:57:26;;;;;;;0.30;0.30;;;17.00;74.40;;;;;;4984888;28;20049;-77
2024/03/17 05:59:51;;;;;;;0.40;0.40;;;17.10;74.40;;;;;;4982962;28;20516;-77
2024/03/17 06:02:18;;;;;;;0.40;0.25;;;17.10;74.50;;;;;;4984928;28;20123;-76
2024/03/17 06:04:44;;;;;;;0.60;0.40;;;17.00;74.40;;;;;;4984105;28;20046;-76
2024/03/17 06:07:10;;;;;;;0.20;0.20;;;17.00;74.50;;;;;;4988554;28;20154;-76
2024/03/17 06:09:35;;;;;;;0.60;0.40;;;17.10;74.40;;;;;;4986617;28;20049;-77
2024/03/17 06:12:01;;;;;;;0.30;0.30;;;17.00;74.30;;;;;;4985198;28;20411;-76
2024/03/17 06:14:26;;;;;;;0.43;0.40;;;17.10;74.40;;;;;;4983529;28;20042;-76
2024/03/17 06:16:52;;;;;;;0.30;0.30;;;17.00;74.30;;;;;;5000358;28;20057;-76
2024/03/17 06:19:17;;;;;;;0.55;0.30;;;17.00;74.40;;;;;;4986509;28;20491;-76
2024/03/17 06:21:43;;;;;;;0.63;0.38;;;17.00;74.40;;;;;;4984557;28;20054;-77
2024/03/17 06:24:09;;;;;;;0.40;0.40;;;17.00;74.50;;;;;;4986238;28;20045;-76
2024/03/17 06:26:35;;;;;;;0.60;0.40;;;17.00;74.40;;;;;;4962938;28;20046;-76
2024/03/17 06:29:01;;;;;;;0.60;0.30;;;17.00;74.40;;;;;;4983502;28;20052;-76
2024/03/17 06:31:26;;;;;;;0.35;0.30;;;17.00;75.10;;;;;;4982663;28;20057;-76
2024/03/17 06:33:52;;;;;;;0.25;0.25;;;17.00;74.40;;;;;;4983554;28;20050;-76
2024/03/17 06:36:17;;;;;;;0.43;0.32;;;17.00;74.30;;;;;;4955434;28;20042;-77
2024/03/17 06:38:43;;;;;;;0.70;0.35;;;17.00;74.50;;;;;;4969184;28;20050;-77
2024/03/17 06:41:14;;;;;;;0.82;0.47;;;17.00;74.40;;;;;;4967893;28;20521;-77
2024/03/17 06:43:41;;;;;;;0.30;0.30;;;17.00;74.50;;;;;;4984761;28;20058;-76
2024/03/17 06:46:07;;;;;;;0.43;0.38;;;17.00;74.40;;;;;;4986188;28;20062;-77
2024/03/17 06:48:33;;;;;;;0.30;0.28;;;17.10;74.40;;;;;;4950261;28;20046;-76
2024/03/17 06:50:59;;;;;;;0.40;0.40;;;17.10;74.60;;;;;;4987399;28;20089;-76
2024/03/17 06:53:26;;;;;;;0.63;0.50;;;17.10;75.10;;;;;;4989297;28;20042;-77
2024/03/17 06:55:55;;;;;;;0.38;0.35;;;17.10;75.10;;;;;;4969813;28;20054;-77
2024/03/17 06:58:26;;;;;;;0.50;0.30;;;17.10;75.30;;;;;;4968191;28;20086;-76
2024/03/17 07:01:04;;;;;;;1.27;0.40;;;17.10;75.50;;;;;;5001001;28;20478;-76
2024/03/17 07:03:30;;;;;;;0.25;0.25;;;17.10;75.70;;;;;;4987671;28;20253;-77
2024/03/17 07:05:57;;;;;;;0.85;0.32;;;17.10;76.40;;;;;;4971823;28;20043;-76
2024/03/17 07:08:22;;;;;;;0.47;0.40;;;17.10;75.80;;;;;;5006079;28;20050;-76
2024/03/17 07:11:13;;;;;;;1.33;0.45;;;17.10;76.20;;;;;;4989150;28;20415;-76
2024/03/17 07:13:39;;;;;;;0.20;0.20;;;17.10;76.30;;;;;;4996640;28;20622;-78
2024/03/17 07:16:08;;;;;;;0.60;0.40;;;17.10;76.40;;;;;;4971544;28;20134;-77
2024/03/17 07:18:34;;;;;;;0.38;0.30;;;17.00;77.30;;;;;;4988518;28;20050;-77
2024/03/17 07:21:02;;;;;;;0.30;0.30;;;17.10;77.90;;;;;;4989058;28;20070;-77
2024/03/17 07:23:28;;;;;;;0.40;0.30;;;17.10;77.60;;;;;;4971396;28;20038;-77
2024/03/17 07:26:00;;;;;;;0.45;0.32;;;17.00;77.70;;;;;;4984999;28;20065;-78
2024/03/17 07:28:26;;;;;;;0.40;0.40;;;17.00;77.50;;;;;;5003225;28;20044;-77
2024/03/17 07:30:58;;;;;;;3.85;0.35;;;17.00;77.20;;;;;;4999073;28;20518;-77
2024/03/17 07:33:24;;;;;;;0.47;0.40;;;17.10;77.20;;;;;;4983884;28;20038;-77
2024/03/17 07:35:55;;;;;;;0.38;0.38;;;17.10;77.40;;;;;;4981746;28;20042;-78
2024/03/17 07:38:21;;;;;;;0.40;0.40;;;17.10;77.60;;;;;;4985809;28;20423;-77
2024/03/17 07:40:57;;;;;;;0.32;0.32;;;17.10;78.20;;;;;;4970057;28;20690;-77
2024/03/17 07:43:24;;;;;;;0.30;0.17;;;17.10;77.10;;;;;;4988880;28;20073;-78
2024/03/17 07:46:06;;;;;;;0.40;0.22;;;17.20;78.30;;;;;;4970997;28;20050;-79
2024/03/17 07:48:33;;;;;;;0.52;0.47;;;17.20;77.30;;;;;;4980454;28;20423;-79
2024/03/17 07:51:02;;;;;;;0.30;0.20;;;17.20;77.40;;;;;;4985750;28;20102;-79
2024/03/17 07:53:27;;;;;;;0.63;0.30;;;17.20;77.40;;;;;;4970266;28;20053;-79
2024/03/17 07:56:05;;;;;;;0.22;0.20;;;17.20;78.50;;;;;;4970464;28;20038;-76
2024/03/17 07:58:32;;;;;;;2.17;1.00;;;17.30;77.50;;;;;;4988719;28;20480;-77
2024/03/17 08:01:19;;;;;;;2.45;1.50;;;17.30;77.60;;;;;;4970446;28;20131;-76
2024/03/17 08:03:55;;;;;;;2.75;1.83;;;17.30;77.50;;;;;;4987820;28;20169;-76
2024/03/17 08:06:21;;;;;;;2.30;2.10;;;17.40;78.60;;;;;;4985609;28;20054;-76
2024/03/17 08:08:47;;;;;;;5.28;1.92;;;17.40;78.50;;;;;;4984792;28;20060;-77
2024/03/17 08:11:13;;;;;;;1.70;1.60;;;17.40;78.50;;;;;;4968452;28;20046;-77
2024/03/17 08:13:39;;;;;;;4.97;4.43;;;17.40;78.70;;;;;;4969975;28;20074;-77
2024/03/17 08:16:05;;;;;;;7.10;4.93;;;17.40;78.80;;;;;;4985465;28;20038;-78
2024/03/17 08:18:31;;;;;;;3.55;3.25;;;17.40;79.10;;;;;;4986347;28;20504;-78
2024/03/17 08:20:57;;;;;;;4.03;3.63;;;17.40;79.20;;;;;;4967566;28;20062;-78
2024/03/17 08:23:23;;;;;;;3.47;2.72;;;17.40;80.20;;;;;;5003319;28;20069;-77
2024/03/17 08:25:55;;;;;;;3.33;2.50;;;17.50;79.60;;;;;;4984816;28;20531;-77
2024/03/17 08:28:21;;;;;;;2.38;2.17;;;17.50;79.40;;;;;;4968845;28;20042;-77
2024/03/17 08:30:59;;;;;;;2.00;1.80;;;17.40;79.20;;;;;;4970169;28;20578;-76
2024/03/17 08:33:25;;;;;;;2.28;2.03;;;17.40;79.00;;;;;;4981995;28;20151;-76
2024/03/17 08:36:00;;;;;;;3.30;2.20;;;17.40;79.20;;;;;;4975046;28;20129;-78
2024/03/17 08:38:27;;;;;;;2.08;1.80;;;17.40;79.50;;;;;;4985085;28;20121;-76
2024/03/17 08:40:53;;;;;;;2.85;1.83;;;17.40;79.60;;;;;;4968165;28;20066;-77
2024/03/17 08:43:19;;;;;;;2.03;1.80;;;17.40;79.40;;;;;;4986929;28;20034;-76
2024/03/17 08:45:45;;;;;;;1.83;1.73;;;17.40;80.10;;;;;;4987462;28;20432;-76
2024/03/17 08:48:11;;;;;;;1.60;1.50;;;17.40;80.00;;;;;;5003343;28;20046;-76
2024/03/17 08:50:37;;;;;;;1.60;1.45;;;17.30;80.20;;;;;;4987248;28;20054;-77
2024/03/17 08:53:02;;;;;;;1.92;1.30;;;17.30;80.50;;;;;;4968290;28;20057;-77
2024/03/17 08:55:28;;;;;;;1.70;1.50;;;17.30;80.50;;;;;;4985592;28;20104;-77
2024/03/17 08:57:54;;;;;;;1.67;1.23;;;17.30;80.50;;;;;;4981721;28;20798;-77
2024/03/17 09:00:19;;;;;;;1.35;1.25;;;17.30;80.60;;;;;;4982491;28;20046;-77
2024/03/17 09:02:45;;;;;;;2.30;1.20;;;17.30;80.40;;;;;;4986411;28;20504;-77
2024/03/17 09:05:12;;;;;;;2.30;1.50;;;17.30;81.30;;;;;;4986790;28;20077;-77
2024/03/17 09:07:38;;;;;;;1.40;1.30;;;17.30;80.50;;;;;;4982243;28;20057;-78
2024/03/17 09:10:04;;;;;;;1.40;1.30;;;17.30;80.50;;;;;;4991054;28;20053;-78
2024/03/17 09:12:30;;;;;;;2.50;1.75;;;17.30;80.50;;;;;;4978544;28;20141;-78
2024/03/17 09:14:55;;;;;;;1.33;1.08;;;17.30;80.40;;;;;;4987122;28;20125;-77
2024/03/17 09:17:21;;;;;;;1.67;1.10;;;17.30;80.40;;;;;;4969388;28;20047;-78
2024/03/17 09:19:49;;;;;;;1.75;1.30;;;17.30;80.20;;;;;;4983902;28;20148;-78
2024/03/17 09:22:15;;;;;;;2.80;1.13;;;17.30;80.40;;;;;;4983158;28;20816;-78
2024/03/17 09:24:41;;;;;;;1.38;1.02;;;17.20;80.40;;;;;;5001132;28;20166;-78
2024/03/17 09:27:06;;;;;;;2.40;1.67;;;17.20;80.20;;;;;;4970337;28;21050;-78
2024/03/17 09:29:33;;;;;;;1.15;0.88;;;17.30;80.20;;;;;;5000473;28;20068;-78
2024/03/17 09:31:58;;;;;;;1.20;0.80;;;17.20;80.30;;;;;;4965827;28;20073;-78
2024/03/17 09:34:24;;;;;;;2.70;1.55;;;17.30;80.50;;;;;;4984624;28;20078;-78
2024/03/17 09:36:50;;;;;;;1.13;0.70;;;17.30;80.30;;;;;;4982748;28;20121;-78
2024/03/17 09:39:16;;;;;;;1.17;0.77;;;17.20;80.10;;;;;;4970670;28;20518;-77
2024/03/17 09:41:42;;;;;;;1.10;0.80;;;17.20;80.10;;;;;;4982402;28;20603;-78
2024/03/17 09:44:13;;;;;;;0.80;0.80;;;17.20;80.20;;;;;;4968352;28;20419;-77
2024/03/17 09:46:38;;;;;;;0.80;0.80;;;17.20;80.30;;;;;;4968569;28;20046;-78
2024/03/17 09:49:04;;;;;;;2.25;0.80;;;17.20;80.10;;;;;;4952163;28;20034;-77
2024/03/17 09:51:31;;;;;;;1.52;0.73;;;17.20;80.20;;;;;;4985133;28;20406;-77
2024/03/17 09:53:57;;;;;;;1.40;0.80;;;17.20;80.10;;;;;;5003085;28;20522;-77
2024/03/17 09:56:23;;;;;;;0.85;0.70;;;17.20;80.20;;;;;;4967830;28;20042;-77
2024/03/17 09:58:50;;;;;;;1.10;0.90;;;17.20;80.30;;;;;;4963881;28;20050;-77
2024/03/17 10:01:16;;;;;;;1.08;0.98;;;17.20;80.10;;;;;;4961917;28;20054;-78
2024/03/17 10:03:42;;;;;;;0.80;0.80;;;17.20;80.10;;;;;;4979016;28;20053;-77
2024/03/17 10:06:11;;;;;;;1.20;0.57;;;17.20;80.20;;;;;;5000042;28;20466;-77
2024/03/17 10:08:44;;;;;;;0.63;0.63;;;17.20;80.20;;;;;;4950426;28;20049;-77
2024/03/17 10:11:11;;;;;;;0.88;0.80;;;17.20;80.10;;;;;;4998874;28;20050;-77
2024/03/17 10:13:36;;;;;;;0.68;0.57;;;17.20;80.20;;;;;;4983900;28;20185;-77
2024/03/17 10:16:02;;;;;;;0.77;0.60;;;17.20;80.10;;;;;;4985594;28;20145;-77
2024/03/17 10:18:27;;;;;;;0.85;0.50;;;17.20;80.10;;;;;;4986422;28;20046;-77
2024/03/17 10:20:57;;;;;;;1.02;0.95;;;17.20;80.20;;;;;;5001015;28;20057;-77
2024/03/17 10:23:23;;;;;;;1.20;0.70;;;17.20;80.10;;;;;;4966029;28;20104;-77
2024/03/17 10:25:48;;;;;;;1.00;0.70;;;17.20;80.00;;;;;;4980239;28;20061;-77
2024/03/17 10:28:15;;;;;;;2.30;0.60;;;17.30;80.00;;;;;;4966001;28;20038;-77
2024/03/17 10:30:42;;;;;;;1.95;0.70;;;17.20;79.90;;;;;;4982940;28;20046;-77
2024/03/17 10:33:22;;;;;;;1.30;1.20;;;17.30;80.70;;;;;;4983243;28;20038;-77
2024/03/17 10:35:48;;;;;;;0.57;0.57;;;17.30;79.80;;;;;;4968751;28;20045;-77
2024/03/17 10:38:14;;;;;;;1.13;0.73;;;17.30;79.80;;;;;;4967884;28;20046;-77
2024/03/17 10:40:39;;;;;;;1.15;0.50;;;17.30;79.80;;;;;;4986225;28;20051;-77
2024/03/17 10:43:05;;;;;;;0.77;0.60;;;17.30;79.80;;;;;;4963636;28;20496;-76
2024/03/17 10:45:35;;;;;;;0.47;0.47;;;17.30;79.70;;;;;;4966132;28;20100;-77
2024/03/17 10:48:01;;;;;;;0.55;0.55;;;17.30;79.80;;;;;;4967964;28;20085;-77
2024/03/17 10:50:30;;;;;;;0.75;0.60;;;17.30;79.80;;;;;;4967399;28;20069;-76
2024/03/17 10:52:55;;;;;;;0.50;0.50;;;17.30;79.90;;;;;;4965215;28;20046;-76
2024/03/17 10:55:25;;;;;;;0.63;0.63;;;17.30;79.70;;;;;;4950277;28;20515;-76
2024/03/17 10:57:52;;;;;;;0.57;0.50;;;17.40;79.60;;;;;;4988847;28;20058;-77
2024/03/17 11:00:24;;;;;;;0.57;0.57;;;17.40;79.60;;;;;;4979224;28;20050;-76
2024/03/17 11:02:51;;;;;;;0.50;0.50;;;17.40;79.50;;;;;;5002196;28;20054;-76
2024/03/17 11:05:24;;;;;;;0.40;0.40;;;17.40;79.30;;;;;;4968915;28;20074;-76
2024/03/17 11:07:51;;;;;;;1.55;0.40;;;17.40;79.30;;;;;;4980748;28;20389;-77
2024/03/17 11:10:17;;;;;;;0.50;0.50;;;17.40;79.60;;;;;;4996394;28;20400;-76
2024/03/17 11:12:44;;;;;;;0.50;0.40;;;17.40;79.50;;;;;;4993682;28;20595;-77
2024/03/17 11:15:18;;;;;;;0.70;0.40;;;17.40;79.20;;;;;;4995080;28;20054;-76
2024/03/17 11:17:54;;;;;;;0.50;0.30;;;17.40;79.10;;;;;;4983619;28;20046;-76
2024/03/17 11:20:28;;;;;;;0.57;0.57;;;17.50;79.00;;;;;;4966894;28;20057;-76
2024/03/17 11:22:58;;;;;;;0.40;0.40;;;17.40;78.40;;;;;;4966404;28;20492;-77
2024/03/17 11:25:26;;;;;;;0.50;0.50;;;17.40;78.60;;;;;;4998101;28;20121;-76
2024/03/17 11:28:11;;;;;;;0.52;0.45;;;17.40;78.80;;;;;;4996161;28;20043;-76
2024/03/17 11:30:43;;;;;;;0.80;0.32;;;17.40;78.70;;;;;;4997061;28;20089;-76
2024/03/17 11:33:36;;;;;;;0.50;0.50;;;17.50;78.30;;;;;;4983210;28;20459;-76
2024/03/17 11:36:25;;;;;;;0.43;0.40;;;17.50;78.60;;;;;;4985352;28;20129;-77
2024/03/17 11:38:52;;;;;;;0.60;0.60;;;17.50;78.50;;;;;;4983207;28;20060;-76
2024/03/17 11:41:32;;;;;;;0.40;0.40;;;17.50;78.60;;;;;;4981700;28;20053;-76
2024/03/17 11:44:20;;;;;;;0.30;0.30;;;17.40;78.40;;;;;;4984787;28;20053;-76
2024/03/17 11:46:49;;;;;;;0.77;0.30;;;17.40;78.50;;;;;;4986581;28;20051;-76
2024/03/17 11:49:20;;;;;;;1.27;0.50;;;17.50;78.30;;;;;;4985909;28;20041;-76
2024/03/17 11:51:46;;;;;;;0.40;0.40;;;17.50;78.30;;;;;;4988584;28;20797;-76
2024/03/17 11:54:23;;;;;;;0.30;0.30;;;17.50;78.10;;;;;;4986320;28;20050;-76
2024/03/17 11:56:49;;;;;;;0.30;0.30;;;17.50;79.00;;;;;;4985286;28;20034;-77
2024/03/17 11:59:17;;;;;;;0.57;0.47;;;17.50;78.30;;;;;;4998082;28;20038;-76
2024/03/17 12:01:44;;;;;;;0.35;0.30;;;17.50;78.40;;;;;;4983356;28;20085;-76
2024/03/17 12:04:10;;;;;;;0.52;0.30;;;17.50;78.30;;;;;;4985749;28;20050;-77
2024/03/17 12:06:36;;;;;;;0.20;0.20;;;17.50;78.20;;;;;;5003665;28;20030;-76
2024/03/17 12:09:20;;;;;;;0.40;0.40;;;17.50;78.40;;;;;;4985995;28;20104;-76
2024/03/17 12:11:49;;;;;;;0.32;0.32;;;17.40;78.40;;;;;;5004758;28;20038;-76
2024/03/17 12:14:16;;;;;;;0.25;0.20;;;17.40;78.40;;;;;;4983367;28;20125;-76
2024/03/17 12:17:09;;;;;;;0.20;0.20;;;17.40;78.60;;;;;;4986092;28;20093;-76
2024/03/17 12:19:34;;;;;;;0.75;0.40;;;17.40;78.50;;;;;;4983420;28;20705;-76
2024/03/17 12:22:01;;;;;;;0.30;0.30;;;17.40;78.40;;;;;;4978458;28;20041;-76
2024/03/17 12:24:27;;;;;;;0.25;0.25;;;17.40;78.40;;;;;;5000835;28;20050;-76
2024/03/17 12:26:59;;;;;;;0.38;0.38;;;17.40;78.60;;;;;;4985709;28;20046;-77
2024/03/17 12:29:29;;;;;;;0.30;0.30;;;17.40;79.40;;;;;;4987509;28;20511;-76
2024/03/17 12:31:56;;;;;;;0.30;0.30;;;17.40;78.50;;;;;;4983522;28;20101;-77
2024/03/17 12:34:23;;;;;;;0.20;0.20;;;17.40;78.80;;;;;;4986158;28;20054;-77
2024/03/17 12:36:49;;;;;;;0.25;0.20;;;17.40;78.80;;;;;;4968244;28;20038;-77
2024/03/17 12:39:28;;;;;;;0.22;0.20;;;17.40;78.80;;;;;;5002160;28;20049;-76
2024/03/17 12:42:06;;;;;;;0.30;0.25;;;17.40;78.80;;;;;;4985097;28;20042;-76
2024/03/17 12:44:33;;;;;;;0.32;0.30;;;17.40;78.90;;;;;;4982237;28;20039;-76
2024/03/17 12:47:02;;;;;;;1.02;0.28;;;17.40;79.10;;;;;;5001319;28;20417;-76
2024/03/17 12:49:29;;;;;;;0.40;0.40;;;17.40;79.30;;;;;;4984660;28;20519;-76